Terminal Aerodrome Forecast
Issued by NWS Sioux Falls, SD

Home | Current Version | Previous Version | Graphics & Text | Print | Product List | Glossary On
Versions: 1 2 3 4 5 6 7 8 9 10 11 12 13 14 15 16 17 18 19 20 21 22 23
000
FTUS43 KFSD 211728
TAFHON
TAF
KHON 211728Z 2118/2218 16015G25KT P6SM FEW150
     FM212300 17010KT P6SM FEW250
     FM220200 14007KT P6SM FEW250
     FM221400 16012KT P6SM FEW150=

USA.gov is the U.S. government's official web portal to all federal, state and local government web resources and services.